createdAt,value
2022-12-07T00:01:09.539Z,7.43
2022-12-07T00:03:38.849Z,7.47
2022-12-07T00:06:08.088Z,7.49
2022-12-07T00:08:37.815Z,7.44
2022-12-07T00:11:06.504Z,7.42
2022-12-07T00:13:35.308Z,7.28
2022-12-07T00:16:05.283Z,7.32
2022-12-07T00:18:33.368Z,7.34
2022-12-07T00:21:02.984Z,7.40
2022-12-07T00:23:30.950Z,7.38
2022-12-07T00:26:05.896Z,7.37
2022-12-07T00:28:34.591Z,7.33
2022-12-07T00:31:04.537Z,7.34
2022-12-07T00:33:32.226Z,7.39
2022-12-07T00:36:00.816Z,7.43
2022-12-07T00:38:31.484Z,7.48
2022-12-07T00:41:02.097Z,7.58
2022-12-07T00:43:30.276Z,7.67
2022-12-07T00:45:58.511Z,7.67
2022-12-07T00:48:28.648Z,7.61
2022-12-07T00:50:56.943Z,7.51
2022-12-07T00:53:24.838Z,7.38
2022-12-07T00:55:53.541Z,7.45
2022-12-07T00:58:22.696Z,7.51
2022-12-07T01:00:50.839Z,7.50
2022-12-07T01:03:19.108Z,7.47
2022-12-07T01:05:53.708Z,7.50
2022-12-07T01:08:21.914Z,7.47
2022-12-07T01:10:50.185Z,7.37
2022-12-07T01:13:18.277Z,7.33
2022-12-07T01:15:47.453Z,7.33
2022-12-07T01:18:15.180Z,7.32
2022-12-07T01:20:42.882Z,7.40
2022-12-07T01:23:10.845Z,7.43
2022-12-07T01:25:38.575Z,7.39
2022-12-07T01:28:06.349Z,7.36
2022-12-07T01:30:34.170Z,7.39
2022-12-07T01:33:03.240Z,7.32
2022-12-07T01:35:30.896Z,7.17
2022-12-07T01:37:58.563Z,7.15
2022-12-07T01:40:26.312Z,7.11
2022-12-07T01:42:53.966Z,7.17
2022-12-07T01:45:41.668Z,7.06
2022-12-07T01:48:13.568Z,7.10
2022-12-07T01:50:43.892Z,7.14
2022-12-07T01:53:12.747Z,7.14
2022-12-07T01:55:43.741Z,7.15
2022-12-07T01:58:13.450Z,7.14
2022-12-07T02:00:42.768Z,7.16
2022-12-07T02:03:17.725Z,7.15
2022-12-07T02:05:46.927Z,7.18
2022-12-07T02:08:15.446Z,7.15
2022-12-07T02:10:43.429Z,7.10
2022-12-07T02:13:15.118Z,7.09
2022-12-07T02:15:58.813Z,7.02
2022-12-07T02:18:40.606Z,6.97
2022-12-07T02:21:13.491Z,6.89
2022-12-07T02:24:02.661Z,6.94
2022-12-07T02:27:09.701Z,6.87
2022-12-07T02:29:44.691Z,6.99
2022-12-07T02:32:18.220Z,7.09
2022-12-07T02:34:52.273Z,7.08
2022-12-07T02:37:31.575Z,6.99
2022-12-07T02:40:05.053Z,6.98
2022-12-07T02:42:37.635Z,6.95
2022-12-07T02:45:08.992Z,6.94
2022-12-07T02:47:38.744Z,7.02
2022-12-07T02:50:08.022Z,6.93
2022-12-07T02:52:35.725Z,6.99
2022-12-07T02:55:03.923Z,7.08
2022-12-07T02:57:44.267Z,7.05
2022-12-07T03:00:17.091Z,7.00
2022-12-07T03:02:54.093Z,7.11
2022-12-07T03:05:44.835Z,7.26
2022-12-07T03:08:22.011Z,7.16
2022-12-07T03:10:56.957Z,6.95
2022-12-07T03:13:30.638Z,6.84
2022-12-07T03:16:05.590Z,6.84
2022-12-07T03:18:38.432Z,6.82
2022-12-07T03:21:12.389Z,6.75
2022-12-07T03:23:43.380Z,6.70
2022-12-07T03:26:14.696Z,6.69
2022-12-07T03:28:49.523Z,6.66
2022-12-07T03:31:23.978Z,6.74
2022-12-07T03:34:00.549Z,6.64
2022-12-07T03:36:33.813Z,6.65
2022-12-07T03:39:10.630Z,6.62
2022-12-07T03:41:44.941Z,6.63
2022-12-07T03:44:13.167Z,6.69
2022-12-07T03:46:46.235Z,6.66
2022-12-07T03:49:26.761Z,6.71
2022-12-07T03:51:59.455Z,6.80
2022-12-07T03:54:32.559Z,6.92
2022-12-07T03:57:01.381Z,7.04
2022-12-07T03:59:30.263Z,7.14
2022-12-07T04:02:04.260Z,7.18
2022-12-07T04:04:32.353Z,7.25
2022-12-07T04:07:00.756Z,7.25
2022-12-07T04:09:29.349Z,7.18
2022-12-07T04:11:58.932Z,7.14
2022-12-07T04:14:26.601Z,7.12
2022-12-07T04:16:57.810Z,7.11
2022-12-07T04:19:29.342Z,7.12
2022-12-07T04:21:57.578Z,7.13
2022-12-07T04:24:27.280Z,7.17
2022-12-07T04:26:56.737Z,7.18
2022-12-07T04:29:28.551Z,7.14
2022-12-07T04:31:56.335Z,7.22
2022-12-07T04:34:23.999Z,7.22
2022-12-07T04:36:53.167Z,7.28
2022-12-07T04:39:24.205Z,7.41
2022-12-07T04:41:52.090Z,7.45
2022-12-07T04:44:20.619Z,7.52
2022-12-07T04:46:48.614Z,7.51
2022-12-07T04:49:17.959Z,7.56
2022-12-07T04:51:46.538Z,7.55
2022-12-07T04:54:17.368Z,7.59
2022-12-07T04:56:45.355Z,7.56
2022-12-07T04:59:13.731Z,7.53
2022-12-07T05:01:41.506Z,7.58
2022-12-07T05:04:11.217Z,7.61
2022-12-07T05:06:38.967Z,7.46
2022-12-07T05:09:07.125Z,7.36
2022-12-07T05:11:42.053Z,7.38
2022-12-07T05:14:14.005Z,7.37
2022-12-07T05:16:42.619Z,7.37
2022-12-07T05:19:10.816Z,7.37
2022-12-07T05:21:39.298Z,7.40
2022-12-07T05:24:08.496Z,7.37
2022-12-07T05:26:37.554Z,7.34
2022-12-07T05:29:05.524Z,7.33
2022-12-07T05:31:33.826Z,7.35
2022-12-07T05:34:02.385Z,7.44
2022-12-07T05:36:32.056Z,7.42
2022-12-07T05:39:00.502Z,7.38
2022-12-07T05:41:46.944Z,7.46
2022-12-07T05:44:16.198Z,7.54
2022-12-07T05:46:44.004Z,7.67
2022-12-07T05:49:11.675Z,7.75
2022-12-07T05:51:39.497Z,7.72
2022-12-07T05:54:07.276Z,7.74
2022-12-07T05:56:35.006Z,7.68
2022-12-07T05:59:20.035Z,7.58
2022-12-07T06:01:49.203Z,7.58
2022-12-07T06:04:17.077Z,7.49
2022-12-07T06:06:44.889Z,7.49
2022-12-07T06:09:14.009Z,7.44
2022-12-07T06:11:56.280Z,7.40
2022-12-07T06:14:24.003Z,7.40
2022-12-07T06:16:53.254Z,7.37
2022-12-07T06:19:21.013Z,7.34
2022-12-07T06:21:48.686Z,7.34
2022-12-07T06:24:18.217Z,7.32
2022-12-07T06:26:46.587Z,7.28
2022-12-07T06:29:15.010Z,7.23
2022-12-07T06:31:43.087Z,7.25
2022-12-07T06:34:14.861Z,7.24
2022-12-07T06:36:42.621Z,7.25
2022-12-07T06:39:11.177Z,7.25
2022-12-07T06:41:39.331Z,7.22
2022-12-07T06:44:07.849Z,7.24
2022-12-07T06:46:36.231Z,7.36
2022-12-07T06:49:04.607Z,7.43
2022-12-07T06:51:33.674Z,7.36
2022-12-07T06:54:01.455Z,7.33
2022-12-07T06:56:29.743Z,7.33
2022-12-07T06:58:57.466Z,7.33
2022-12-07T07:01:25.197Z,7.38
2022-12-07T07:03:53.326Z,7.42
2022-12-07T07:06:21.070Z,7.36
2022-12-07T07:08:50.341Z,7.36
2022-12-07T07:11:18.348Z,7.45
2022-12-07T07:13:46.572Z,7.48
2022-12-07T07:16:14.636Z,7.42
2022-12-07T07:18:42.364Z,7.47
2022-12-07T07:21:10.863Z,7.43
2022-12-07T07:23:38.585Z,7.48
2022-12-07T07:26:07.819Z,7.61
2022-12-07T07:28:35.574Z,7.66
2022-12-07T07:31:03.385Z,7.65
2022-12-07T07:33:31.342Z,7.67
2022-12-07T07:35:59.119Z,7.49
2022-12-07T07:38:26.823Z,7.42
2022-12-07T07:40:54.599Z,7.32
2022-12-07T07:43:23.732Z,7.23
2022-12-07T07:45:51.894Z,7.30
2022-12-07T07:48:19.669Z,7.44
2022-12-07T07:50:47.403Z,7.54
2022-12-07T07:53:15.110Z,7.55
2022-12-07T07:55:42.803Z,7.51
2022-12-07T07:58:10.458Z,7.49
2022-12-07T08:00:39.486Z,7.62
2022-12-07T08:03:07.191Z,7.67
2022-12-07T08:05:34.928Z,7.73
2022-12-07T08:08:02.774Z,7.72
2022-12-07T08:10:30.574Z,7.67
2022-12-07T08:13:14.703Z,7.60
2022-12-07T08:15:46.074Z,7.76
2022-12-07T08:18:15.014Z,7.83
2022-12-07T08:20:44.074Z,7.87
2022-12-07T08:23:12.971Z,7.90
2022-12-07T08:25:40.939Z,7.88
2022-12-07T08:28:09.196Z,7.87
2022-12-07T08:30:36.988Z,7.88
2022-12-07T08:33:06.040Z,7.91
2022-12-07T08:35:35.178Z,7.86
2022-12-07T08:38:04.642Z,7.87
2022-12-07T08:40:32.645Z,7.95
2022-12-07T08:43:00.323Z,8.03
2022-12-07T08:45:28.755Z,7.98
2022-12-07T08:48:00.555Z,8.01
2022-12-07T08:50:45.919Z,7.95
2022-12-07T08:53:17.359Z,7.94
2022-12-07T08:55:46.436Z,8.00
2022-12-07T08:58:14.245Z,8.16
2022-12-07T09:00:42.164Z,8.27
2022-12-07T09:03:09.870Z,8.37
2022-12-07T09:05:39.051Z,8.45
2022-12-07T09:08:08.346Z,8.52
2022-12-07T09:10:36.083Z,8.59
2022-12-07T09:13:03.731Z,8.60
2022-12-07T09:15:32.241Z,8.64
2022-12-07T09:17:59.981Z,8.62
2022-12-07T09:20:30.454Z,8.64
2022-12-07T09:22:59.520Z,8.68
2022-12-07T09:25:27.417Z,8.73
2022-12-07T09:27:58.100Z,8.74
2022-12-07T09:30:25.869Z,8.78
2022-12-07T09:32:55.934Z,8.87
2022-12-07T09:35:24.692Z,8.90
2022-12-07T09:37:52.490Z,9.04
2022-12-07T09:40:24.215Z,9.14
2022-12-07T09:42:54.805Z,9.14
2022-12-07T09:45:26.364Z,9.22
2022-12-07T09:47:54.225Z,9.28
2022-12-07T09:50:25.072Z,9.41
2022-12-07T09:52:54.232Z,9.51
2022-12-07T09:55:27.568Z,9.61
2022-12-07T09:57:56.042Z,9.67
2022-12-07T10:00:26.214Z,9.75
2022-12-07T10:02:59.482Z,9.95
2022-12-07T10:05:32.083Z,10.11
2022-12-07T10:07:59.992Z,10.42
2022-12-07T10:10:38.320Z,11.17
2022-12-07T10:13:09.006Z,11.48
2022-12-07T10:15:49.013Z,11.49
2022-12-07T10:18:28.638Z,11.99
2022-12-07T10:21:08.469Z,12.32
2022-12-07T10:23:37.255Z,12.15
2022-12-07T10:29:00.576Z,13.41
2022-12-07T10:31:28.500Z,14.28
2022-12-07T10:33:58.353Z,14.45
2022-12-07T10:36:28.359Z,14.31
2022-12-07T10:39:02.051Z,14.44
2022-12-07T10:41:29.817Z,14.98
2022-12-07T10:44:00.177Z,14.67
2022-12-07T10:46:48.458Z,13.96
2022-12-07T10:49:43.382Z,13.17
2022-12-07T10:52:19.077Z,12.73
2022-12-07T10:54:59.849Z,12.33
2022-12-07T10:57:46.758Z,12.79
2022-12-07T11:00:20.424Z,14.46
2022-12-07T11:03:08.078Z,15.01
2022-12-07T11:05:47.174Z,14.71
2022-12-07T11:08:23.650Z,14.31
2022-12-07T11:10:57.592Z,13.96
2022-12-07T11:13:30.871Z,14.10
2022-12-07T11:16:24.327Z,13.77
2022-12-07T11:19:15.759Z,13.22
2022-12-07T11:21:55.379Z,12.86
2022-12-07T11:24:33.829Z,12.58
2022-12-07T11:27:15.030Z,12.32
2022-12-07T11:29:54.839Z,12.14
2022-12-07T11:32:48.744Z,11.95
2022-12-07T11:35:24.782Z,11.84
2022-12-07T11:37:59.071Z,11.73
2022-12-07T11:40:29.243Z,11.62
2022-12-07T11:43:01.814Z,11.55
2022-12-07T11:45:32.919Z,11.20
2022-12-07T11:48:04.759Z,10.76
2022-12-07T11:50:38.636Z,10.47
2022-12-07T11:53:16.299Z,10.34
2022-12-07T11:55:49.760Z,10.17
2022-12-07T11:58:31.946Z,10.02
2022-12-07T12:01:10.702Z,9.88
2022-12-07T12:03:49.552Z,9.77
2022-12-07T12:06:22.627Z,9.69
2022-12-07T12:15:12.567Z,9.50
2022-12-07T12:17:56.301Z,9.49
2022-12-07T12:20:32.257Z,9.49
2022-12-07T12:23:09.230Z,9.46
2022-12-07T12:25:42.470Z,9.44
2022-12-07T12:28:23.883Z,9.43
2022-12-07T12:31:08.666Z,9.45
2022-12-07T12:33:37.722Z,9.46
2022-12-07T12:36:47.572Z,9.51
2022-12-07T12:39:19.599Z,9.59
2022-12-07T12:42:14.206Z,9.63
2022-12-07T12:45:05.119Z,9.68
2022-12-07T12:47:59.464Z,9.65
2022-12-07T12:50:33.592Z,9.59
2022-12-07T12:53:12.019Z,9.56
2022-12-07T12:56:09.490Z,9.56
2022-12-07T12:58:44.444Z,9.54
2022-12-07T13:01:59.954Z,9.58
2022-12-07T13:04:54.693Z,9.51
2022-12-07T13:08:05.135Z,9.40
2022-12-07T13:10:43.549Z,9.34
2022-12-07T13:13:51.312Z,9.37
2022-12-07T13:16:45.410Z,9.32
2022-12-07T13:20:11.518Z,9.32
2022-12-07T13:22:49.512Z,9.25
2022-12-07T13:25:29.133Z,9.29
2022-12-07T13:28:03.392Z,9.33
2022-12-07T13:30:32.384Z,9.25
2022-12-07T13:33:01.213Z,9.18
2022-12-07T13:35:35.170Z,9.21
2022-12-07T13:38:08.304Z,9.24
2022-12-07T13:40:36.082Z,9.23
2022-12-07T13:43:06.985Z,9.23
2022-12-07T13:45:51.183Z,9.19
2022-12-07T13:48:24.321Z,9.20
2022-12-07T13:50:56.693Z,9.26
2022-12-07T13:53:25.424Z,9.32
2022-12-07T13:55:54.791Z,9.33
2022-12-07T13:58:24.741Z,9.41
2022-12-07T14:00:52.795Z,9.49
2022-12-07T14:03:31.450Z,9.57
2022-12-07T14:06:18.410Z,9.58
2022-12-07T14:08:47.280Z,9.58
2022-12-07T14:11:19.018Z,9.57
2022-12-07T14:13:58.444Z,9.58
2022-12-07T14:16:29.891Z,9.58
2022-12-07T14:18:59.106Z,9.62
2022-12-07T14:21:28.662Z,9.54
2022-12-07T14:24:21.346Z,9.49
2022-12-07T14:26:51.646Z,9.44
2022-12-07T14:29:31.471Z,9.46
2022-12-07T14:32:00.711Z,9.41
2022-12-07T14:34:28.534Z,9.42
2022-12-07T14:36:56.255Z,9.43
2022-12-07T14:39:24.006Z,9.42
2022-12-07T14:41:54.316Z,9.38
2022-12-07T14:44:29.401Z,9.34
2022-12-07T14:49:47.819Z,9.30
2022-12-07T14:55:15.589Z,9.22
2022-12-07T14:57:45.161Z,9.25
2022-12-07T15:00:18.926Z,9.26
2022-12-07T15:02:47.449Z,9.26
2022-12-07T15:05:16.458Z,9.28
2022-12-07T15:07:45.117Z,9.18
2022-12-07T15:10:23.526Z,9.19
2022-12-07T15:12:52.168Z,9.16
2022-12-07T15:15:21.255Z,9.07
2022-12-07T15:17:50.775Z,9.06
2022-12-07T15:20:18.681Z,9.02
2022-12-07T15:22:46.478Z,8.95
2022-12-07T15:25:15.394Z,8.91
2022-12-07T15:27:43.240Z,8.85
2022-12-07T15:30:11.473Z,8.79
2022-12-07T15:32:40.757Z,8.74
2022-12-07T15:35:09.429Z,8.80
2022-12-07T15:37:37.189Z,8.78
2022-12-07T15:40:07.966Z,8.75
2022-12-07T15:42:35.994Z,8.79
2022-12-07T15:45:06.116Z,8.82
2022-12-07T15:47:54.904Z,8.80
2022-12-07T15:50:25.033Z,8.74
2022-12-07T15:52:52.820Z,8.70
2022-12-07T15:55:20.812Z,8.63
2022-12-07T15:57:48.803Z,8.67
2022-12-07T16:00:17.519Z,8.61
2022-12-07T16:02:45.237Z,8.63
2022-12-07T16:05:12.989Z,8.62
2022-12-07T16:07:43.125Z,8.55
2022-12-07T16:10:11.719Z,8.50
2022-12-07T16:12:39.494Z,8.43
2022-12-07T16:15:08.697Z,8.41
2022-12-07T16:17:36.430Z,8.39
2022-12-07T16:20:06.079Z,8.34
2022-12-07T16:22:34.363Z,8.36
2022-12-07T16:25:03.893Z,8.39
2022-12-07T16:27:31.776Z,8.42
2022-12-07T16:29:59.537Z,8.41
2022-12-07T16:32:27.266Z,8.43
2022-12-07T16:34:54.887Z,8.40
2022-12-07T16:37:22.643Z,8.33
2022-12-07T16:39:50.335Z,8.30
2022-12-07T16:42:19.423Z,8.28
2022-12-07T16:44:47.153Z,8.33
2022-12-07T16:47:15.963Z,8.33
2022-12-07T16:49:44.746Z,8.27
2022-12-07T16:52:20.241Z,8.20
2022-12-07T16:54:49.433Z,8.24
2022-12-07T16:57:22.499Z,8.23
2022-12-07T16:59:53.595Z,8.28
2022-12-07T17:02:21.446Z,8.27
2022-12-07T17:04:49.215Z,8.26
2022-12-07T17:07:16.950Z,8.31
2022-12-07T17:09:44.825Z,8.37
2022-12-07T17:12:12.553Z,8.32
2022-12-07T17:14:54.415Z,8.30
2022-12-07T17:17:23.480Z,8.29
2022-12-07T17:19:51.200Z,8.27
2022-12-07T17:22:18.962Z,8.22
2022-12-07T17:24:46.675Z,8.16
2022-12-07T17:27:14.468Z,8.18
2022-12-07T17:29:42.367Z,8.13
2022-12-07T17:32:10.170Z,8.06
2022-12-07T17:34:39.296Z,7.92
2022-12-07T17:37:07.044Z,7.83
2022-12-07T17:39:34.799Z,7.83
2022-12-07T17:42:19.847Z,7.85
2022-12-07T17:44:47.532Z,7.90
2022-12-07T17:47:18.616Z,7.88
2022-12-07T17:49:48.226Z,7.89
2022-12-07T17:52:34.730Z,7.89
2022-12-07T17:55:02.930Z,7.87
2022-12-07T17:57:30.955Z,7.82
2022-12-07T17:59:59.033Z,7.80
2022-12-07T18:02:26.928Z,7.71
2022-12-07T18:04:56.105Z,7.69
2022-12-07T18:07:23.896Z,7.77
2022-12-07T18:09:51.924Z,7.76
2022-12-07T18:12:19.681Z,7.72
2022-12-07T18:14:47.421Z,7.77
2022-12-07T18:17:15.227Z,7.80
2022-12-07T18:19:43.028Z,7.70
2022-12-07T18:22:12.080Z,7.61
2022-12-07T18:24:39.838Z,7.44
2022-12-07T18:27:08.015Z,7.35
2022-12-07T18:29:35.765Z,7.40
2022-12-07T18:32:04.977Z,7.36
2022-12-07T18:34:33.345Z,7.36
2022-12-07T18:37:01.086Z,7.44
2022-12-07T18:39:33.665Z,7.43
2022-12-07T18:42:02.170Z,7.48
2022-12-07T18:44:29.999Z,7.51
2022-12-07T18:46:57.825Z,7.53
2022-12-07T18:49:25.697Z,7.55
2022-12-07T18:51:53.499Z,7.55
2022-12-07T18:54:21.252Z,7.54
2022-12-07T18:56:50.313Z,7.49
2022-12-07T18:59:35.497Z,7.59
2022-12-07T19:02:03.334Z,7.61
2022-12-07T19:04:31.310Z,7.62
2022-12-07T19:06:59.143Z,7.47
2022-12-07T19:09:26.862Z,7.40
2022-12-07T19:11:57.246Z,7.44
2022-12-07T19:14:27.471Z,7.40
2022-12-07T19:16:57.280Z,7.38
2022-12-07T19:19:31.357Z,7.39
2022-12-07T19:21:59.161Z,7.29
2022-12-07T19:24:27.028Z,7.28
2022-12-07T19:26:56.124Z,7.27
2022-12-07T19:29:23.911Z,7.24
2022-12-07T19:31:51.772Z,7.36
2022-12-07T19:34:19.566Z,7.43
2022-12-07T19:36:47.780Z,7.47
2022-12-07T19:39:16.199Z,7.43
2022-12-07T19:41:44.817Z,7.33
2022-12-07T19:44:15.667Z,7.36
2022-12-07T19:46:45.676Z,7.39
2022-12-07T19:49:16.024Z,7.34
2022-12-07T19:51:44.769Z,7.34
2022-12-07T19:54:14.907Z,7.29
2022-12-07T19:56:44.452Z,7.26
2022-12-07T19:59:14.613Z,7.25
2022-12-07T20:01:43.577Z,7.28
2022-12-07T20:04:13.850Z,7.24
2022-12-07T20:06:41.857Z,7.22
2022-12-07T20:09:10.123Z,7.28
2022-12-07T20:11:56.344Z,7.08
2022-12-07T20:14:25.682Z,7.07
2022-12-07T20:16:53.746Z,7.10
2022-12-07T20:19:21.518Z,7.07
2022-12-07T20:21:50.523Z,7.12
2022-12-07T20:24:21.055Z,7.04
2022-12-07T20:26:51.006Z,7.05
2022-12-07T20:29:20.629Z,7.10
2022-12-07T20:31:50.961Z,7.14
2022-12-07T20:34:19.136Z,7.23
2022-12-07T20:36:47.395Z,7.17
2022-12-07T20:39:15.668Z,7.10
2022-12-07T20:42:00.967Z,7.15
2022-12-07T20:44:28.959Z,7.31
2022-12-07T20:46:58.059Z,7.28
2022-12-07T20:49:25.721Z,7.14
2022-12-07T20:51:53.469Z,7.00
2022-12-07T20:54:21.250Z,6.85
2022-12-07T20:56:48.933Z,6.71
2022-12-07T20:59:17.540Z,6.57
2022-12-07T21:01:45.840Z,6.51
2022-12-07T21:04:15.768Z,6.51
2022-12-07T21:06:43.867Z,6.52
2022-12-07T21:09:12.266Z,6.48
2022-12-07T21:11:40.381Z,6.51
2022-12-07T21:14:08.234Z,6.57
2022-12-07T21:16:36.154Z,6.51
2022-12-07T21:19:05.145Z,6.54
2022-12-07T21:21:35.264Z,6.53
2022-12-07T21:24:04.805Z,6.61
2022-12-07T21:26:34.778Z,6.71
2022-12-07T21:29:03.137Z,6.85
2022-12-07T21:31:31.088Z,6.93
2022-12-07T21:33:58.870Z,6.92
2022-12-07T21:36:27.284Z,6.93
2022-12-07T21:38:56.320Z,6.99
2022-12-07T21:41:25.925Z,7.04
2022-12-07T21:43:54.848Z,7.13
2022-12-07T21:46:28.099Z,7.14
2022-12-07T21:49:00.738Z,7.14
2022-12-07T21:51:31.133Z,7.17
2022-12-07T21:54:02.199Z,7.21
2022-12-07T21:56:31.944Z,7.08
2022-12-07T21:59:01.783Z,7.04
2022-12-07T22:01:31.008Z,7.14
2022-12-07T22:03:58.881Z,7.22
2022-12-07T22:06:27.703Z,7.16
2022-12-07T22:08:56.991Z,7.16
2022-12-07T22:11:26.083Z,7.16
2022-12-07T22:14:19.535Z,7.17
2022-12-07T22:16:47.205Z,7.22
2022-12-07T22:19:14.875Z,7.25
2022-12-07T22:21:42.651Z,7.25
2022-12-07T22:24:12.989Z,7.31
2022-12-07T22:26:42.672Z,7.17
2022-12-07T22:29:10.548Z,7.15
2022-12-07T22:31:40.849Z,7.16
2022-12-07T22:34:13.890Z,7.27
2022-12-07T22:36:41.528Z,7.15
2022-12-07T22:39:10.125Z,6.97
2022-12-07T22:41:38.197Z,6.88
2022-12-07T22:44:08.356Z,7.00
2022-12-07T22:46:36.661Z,7.07
2022-12-07T22:49:04.987Z,7.06
2022-12-07T22:51:35.054Z,7.11
2022-12-07T22:54:04.113Z,7.02
2022-12-07T22:56:34.278Z,7.03
2022-12-07T22:59:02.100Z,7.01
2022-12-07T23:01:31.238Z,6.92
2022-12-07T23:03:59.391Z,6.88
2022-12-07T23:06:29.592Z,6.82
2022-12-07T23:08:58.483Z,6.65
2022-12-07T23:11:49.182Z,6.66
2022-12-07T23:14:19.447Z,6.80
2022-12-07T23:16:48.778Z,6.82
2022-12-07T23:19:16.877Z,6.71
2022-12-07T23:21:44.883Z,6.66
2022-12-07T23:24:13.317Z,6.59
2022-12-07T23:26:41.868Z,6.73
2022-12-07T23:29:15.701Z,6.77
2022-12-07T23:31:45.244Z,6.74
2022-12-07T23:34:14.787Z,6.81
2022-12-07T23:36:42.509Z,6.76
2022-12-07T23:39:10.850Z,6.73
2022-12-07T23:41:38.778Z,6.84
2022-12-07T23:44:06.845Z,6.94
2022-12-07T23:46:35.107Z,6.99
2022-12-07T23:49:04.982Z,7.06
2022-12-07T23:51:34.960Z,7.10
2022-12-07T23:54:02.970Z,7.01
2022-12-07T23:56:32.998Z,6.92
2022-12-07T23:59:02.028Z,6.84
